Time;durP1;ratioP1;P1;durP2;ratioP2;P2;SDS_P1;SDS_P2;PMS_P1;PMS_P2;Temp;Humidity;BMP_temperature;BMP_pressure;BME280_temperature;BME280_humidity;BME280_pressure;Samples;Min_cycle;Max_cycle;Signal;HPM_P1;HPM_P2
2021/11/30 00:01:32;;;;;;;2.10;0.95;;;;;;;17.59;48.09;100119.28;4395936;32;20062;-70
2021/11/30 00:03:59;;;;;;;2.53;0.95;;;;;;;17.34;48.34;100102.94;4395686;32;20474;-70
2021/11/30 00:06:25;;;;;;;2.92;1.50;;;;;;;16.98;49.18;100095.81;4396662;32;20070;-70
2021/11/30 00:08:57;;;;;;;2.75;0.90;;;;;;;17.29;48.55;100092.28;4396818;32;20069;-70
2021/11/30 00:11:24;;;;;;;3.28;1.08;;;;;;;17.25;48.67;100094.56;4399655;32;20030;-70
2021/11/30 00:13:50;;;;;;;1.80;1.00;;;;;;;17.06;49.13;100090.47;4399866;32;20068;-70
2021/11/30 00:16:16;;;;;;;5.12;1.00;;;;;;;17.45;48.29;100075.44;4398332;32;20628;-70
2021/11/30 00:18:42;;;;;;;2.22;0.90;;;;;;;17.40;48.41;100089.56;4398928;32;20411;-70
2021/11/30 00:21:11;;;;;;;2.42;0.70;;;;;;;17.21;49.03;100082.62;4400002;32;20083;-70
2021/11/30 00:23:38;;;;;;;2.45;0.70;;;;;;;17.68;47.79;100080.03;4396862;32;20626;-70
2021/11/30 00:26:05;;;;;;;2.85;0.62;;;;;;;17.71;47.74;100064.03;4398873;32;20099;-70
2021/11/30 00:28:32;;;;;;;1.02;0.55;;;;;;;17.48;48.27;100059.41;4399475;32;20352;-70
2021/11/30 00:30:57;;;;;;;0.93;0.60;;;;;;;17.41;48.43;100056.97;4398455;32;20146;-70
2021/11/30 00:33:23;;;;;;;1.45;0.60;;;;;;;17.25;48.98;100043.38;4398864;32;20063;-70
2021/11/30 00:35:50;;;;;;;2.08;0.55;;;;;;;17.61;47.73;100037.81;4397778;32;20133;-70
2021/11/30 00:38:17;;;;;;;2.03;0.50;;;;;;;17.34;48.31;100041.13;4398804;32;20190;-70
2021/11/30 00:40:44;;;;;;;1.80;0.40;;;;;;;17.38;48.27;100041.72;4399616;32;20064;-70
2021/11/30 00:43:18;;;;;;;1.98;0.52;;;;;;;17.39;48.61;100043.25;4398715;32;20120;-70
2021/11/30 00:45:52;;;;;;;0.57;0.40;;;;;;;17.44;48.20;100025.50;4397602;32;20142;-70
2021/11/30 00:48:22;;;;;;;2.03;0.50;;;;;;;17.00;49.66;100027.09;4399075;32;20058;-70
2021/11/30 00:50:52;;;;;;;1.92;0.52;;;;;;;16.48;51.28;100031.09;4398949;32;20077;-70
2021/11/30 00:53:18;;;;;;;0.90;0.70;;;;;;;17.23;49.51;100038.19;4398726;32;20049;-70
2021/11/30 00:55:44;;;;;;;1.27;0.50;;;;;;;17.13;49.94;100051.00;4400493;32;20056;-70
2021/11/30 00:58:10;;;;;;;1.30;0.62;;;;;;;17.03;50.10;100043.91;4396408;32;20424;-70
2021/11/30 01:00:36;;;;;;;3.72;0.60;;;;;;;17.08;50.02;100036.72;4398271;32;20068;-70
2021/11/30 01:03:04;;;;;;;1.17;0.40;;;;;;;16.65;51.21;100034.91;4400041;32;20042;-70
2021/11/30 01:05:32;;;;;;;0.50;0.50;;;;;;;16.93;50.49;100038.88;4397172;32;20066;-69
2021/11/30 01:07:58;;;;;;;1.42;0.80;;;;;;;17.02;50.71;100038.72;4397179;32;20086;-70
2021/11/30 01:10:25;;;;;;;0.62;0.45;;;;;;;16.81;50.86;100035.12;4387689;32;20055;-69
2021/11/30 01:12:51;;;;;;;0.60;0.40;;;;;;;16.58;51.71;100019.09;4399304;32;20101;-70
2021/11/30 01:15:19;;;;;;;0.70;0.37;;;;;;;16.63;51.14;100023.28;4397728;32;20435;-69
2021/11/30 01:17:45;;;;;;;1.65;0.43;;;;;;;17.27;49.97;100035.91;4396134;32;20070;-70
2021/11/30 01:20:13;;;;;;;1.08;0.40;;;;;;;17.26;49.98;100028.66;4397368;32;20038;-70
2021/11/30 01:22:40;;;;;;;0.50;0.20;;;;;;;17.00;50.67;100035.62;4396468;32;20070;-69
2021/11/30 01:25:07;;;;;;;1.10;0.40;;;;;;;17.00;51.08;100025.00;4398738;32;20424;-68
2021/11/30 01:27:33;;;;;;;0.40;0.20;;;;;;;17.30;50.15;100015.00;4397981;32;20030;-69
2021/11/30 01:29:59;;;;;;;1.17;0.47;;;;;;;17.13;50.39;100019.75;4396998;32;20049;-68
2021/11/30 01:32:25;;;;;;;2.22;0.35;;;;;;;17.12;50.38;100023.09;4396611;32;20089;-69
2021/11/30 01:34:51;;;;;;;0.73;0.20;;;;;;;16.80;51.51;100022.19;4397671;32;20108;-69
2021/11/30 01:37:17;;;;;;;0.30;0.20;;;;;;;16.82;51.40;100022.50;4396949;32;20035;-69
2021/11/30 01:39:46;;;;;;;0.57;0.20;;;;;;;17.14;50.29;100029.81;4396799;32;20334;-68
2021/11/30 01:42:14;;;;;;;1.02;0.28;;;;;;;17.31;50.25;100038.53;4396919;32;20114;-69
2021/11/30 01:50:08;;;;;;;;;;;;;;;17.49;50.21;100053.22;4449177;32;20388;-70
2021/11/30 01:52:34;;;;;;;0.30;0.17;;;;;;;17.30;49.87;100037.75;4447461;32;19972;-70
2021/11/30 01:55:00;;;;;;;0.40;0.10;;;;;;;17.60;48.95;100041.94;4448154;32;20049;-70
2021/11/30 01:57:27;;;;;;;0.37;0.20;;;;;;;17.79;48.48;100040.31;4444950;32;20111;-70
2021/11/30 01:59:55;;;;;;;2.92;0.10;;;;;;;18.19;47.65;100041.38;4448004;32;20013;-70
2021/11/30 02:02:21;;;;;;;2.05;0.20;;;;;;;18.52;46.93;100048.09;4445783;32;20089;-70
2021/11/30 02:04:47;;;;;;;0.40;0.10;;;;;;;18.93;46.06;100054.25;4446627;32;20069;-70
2021/11/30 02:07:13;;;;;;;0.43;0.00;;;;;;;18.41;46.89;100033.00;4446678;32;20128;-69
2021/11/30 02:09:40;;;;;;;1.25;0.30;;;;;;;18.38;46.85;100043.34;4443022;32;20096;-69
2021/11/30 02:12:08;;;;;;;0.43;0.10;;;;;;;19.10;45.62;100041.59;4448167;32;20366;-69
2021/11/30 02:14:35;;;;;;;0.52;0.15;;;;;;;18.83;46.16;100042.28;4445178;32;20034;-69
2021/11/30 02:17:03;;;;;;;0.28;0.10;;;;;;;19.06;45.18;100029.66;4445121;32;20094;-69
2021/11/30 02:19:29;;;;;;;0.70;0.10;;;;;;;19.07;45.86;100033.28;4446342;32;20352;-69
2021/11/30 02:21:55;;;;;;;0.98;0.10;;;;;;;19.09;45.46;100037.16;4447202;32;20119;-69
2021/11/30 02:24:22;;;;;;;0.47;0.10;;;;;;;19.03;45.60;100018.50;4446287;32;20104;-69
2021/11/30 02:26:48;;;;;;;0.13;0.00;;;;;;;18.96;45.58;100044.66;4448134;32;20886;-69
2021/11/30 02:29:13;;;;;;;0.90;0.00;;;;;;;18.78;46.07;100002.34;4446354;32;20128;-70
2021/11/30 02:31:45;;;;;;;0.15;0.00;;;;;;;18.62;46.60;100020.16;4450177;32;20029;-70
2021/11/30 02:34:12;;;;;;;0.10;0.10;;;;;;;18.81;46.44;100021.28;4446768;32;20090;-69
2021/11/30 02:37:03;;;;;;;0.10;0.10;;;;;;;18.27;47.39;100025.38;4446341;32;20056;-69
2021/11/30 02:39:25;;;;;;;0.17;0.00;;;;;;;18.56;46.89;100028.66;4448381;32;20089;-69
2021/11/30 02:41:54;;;;;;;0.20;0.00;;;;;;;18.39;47.15;100033.50;4447422;32;20065;-69
2021/11/30 02:44:22;;;;;;;0.50;0.10;;;;;;;18.72;46.60;100027.22;4447642;32;20095;-70
2021/11/30 02:46:51;;;;;;;0.20;0.03;;;;;;;18.46;47.35;100032.25;4443728;32;20041;-70
2021/11/30 02:49:20;;;;;;;0.15;0.00;;;;;;;18.68;46.64;100032.38;4445481;32;21225;-70
2021/11/30 02:51:50;;;;;;;0.37;0.05;;;;;;;18.42;47.76;100031.72;4446551;32;20106;-69
2021/11/30 02:54:20;;;;;;;0.37;0.10;;;;;;;18.87;46.10;100027.78;4447653;32;20404;-70
2021/11/30 02:56:50;;;;;;;0.10;0.05;;;;;;;19.23;45.70;100006.87;4442085;32;20084;-69
2021/11/30 02:59:17;;;;;;;2.12;0.32;;;;;;;18.62;46.88;100005.91;4437738;32;20366;-69
2021/11/30 03:01:52;;;;;;;1.02;0.10;;;;;;;18.38;47.66;99997.75;4435394;32;20073;-69
2021/11/30 03:04:18;;;;;;;0.45;0.20;;;;;;;19.20;45.82;100002.19;4437158;32;20029;-69
2021/11/30 03:06:44;;;;;;;0.55;0.10;;;;;;;18.66;46.92;100000.75;4437322;32;20471;-70
2021/11/30 03:09:10;;;;;;;0.45;0.08;;;;;;;18.60;46.98;99997.09;4433534;32;20056;-70
2021/11/30 03:11:37;;;;;;;0.30;0.10;;;;;;;18.10;47.92;99982.53;4436187;32;20073;-70
2021/11/30 03:14:02;;;;;;;0.20;0.10;;;;;;;18.62;47.40;99978.19;4436356;32;20061;-70
2021/11/30 03:16:30;;;;;;;1.08;0.10;;;;;;;18.96;46.28;99965.59;4435267;32;20079;-70
2021/11/30 03:18:56;;;;;;;0.80;0.08;;;;;;;18.79;46.81;99966.84;4435799;32;20550;-70
2021/11/30 03:21:21;;;;;;;0.20;0.08;;;;;;;18.92;46.53;99970.00;4436306;32;20062;-70
2021/11/30 03:23:47;;;;;;;0.88;0.10;;;;;;;18.17;48.61;99947.91;4435411;32;20071;-70
2021/11/30 03:26:14;;;;;;;0.10;0.03;;;;;;;18.99;46.51;99941.75;4434578;32;20052;-69
2021/11/30 03:28:43;;;;;;;0.25;0.10;;;;;;;18.74;47.21;99934.19;4437771;32;20064;-70
2021/11/30 03:31:21;;;;;;;0.30;0.10;;;;;;;18.87;46.80;99914.50;4435650;32;20108;-70
2021/11/30 03:34:02;;;;;;;0.77;0.10;;;;;;;19.22;46.21;99911.19;4435750;32;20257;-70
2021/11/30 03:36:29;;;;;;;0.25;0.10;;;;;;;18.92;46.93;99904.41;4437609;32;20045;-69
2021/11/30 03:38:56;;;;;;;1.30;0.20;;;;;;;18.61;47.92;99907.44;4437043;32;20091;-69
2021/11/30 03:41:22;;;;;;;0.17;0.08;;;;;;;18.33;48.73;99915.88;4434966;32;20137;-69
2021/11/30 03:43:48;;;;;;;0.17;0.10;;;;;;;18.11;49.23;99927.16;4433842;32;20069;-69
2021/11/30 03:46:14;;;;;;;1.62;0.10;;;;;;;18.28;48.84;99924.41;4434064;32;20075;-69
2021/11/30 03:48:40;;;;;;;0.37;0.20;;;;;;;17.35;51.60;99931.00;4430936;32;20145;-69
2021/11/30 03:51:06;;;;;;;1.77;0.30;;;;;;;17.63;50.78;99932.03;4434022;32;20516;-68
2021/11/30 03:53:32;;;;;;;2.28;0.13;;;;;;;17.23;52.26;99938.66;4434312;32;20093;-68
2021/11/30 03:55:58;;;;;;;0.60;0.20;;;;;;;17.23;52.37;99947.19;4435668;32;20037;-68
2021/11/30 03:58:24;;;;;;;0.88;0.13;;;;;;;16.96;53.06;99946.91;4437092;32;20022;-69
2021/11/30 04:00:50;;;;;;;0.40;0.08;;;;;;;17.31;52.17;99930.47;4430851;32;20095;-69
2021/11/30 04:03:16;;;;;;;0.50;0.20;;;;;;;16.86;53.33;99937.78;4433160;32;20126;-69
2021/11/30 04:05:42;;;;;;;0.10;0.10;;;;;;;16.95;53.12;99931.94;4435101;32;20426;-69
2021/11/30 04:08:08;;;;;;;1.15;0.30;;;;;;;16.95;53.12;99937.63;4434350;32;20073;-69
2021/11/30 04:10:33;;;;;;;1.40;0.10;;;;;;;16.85;53.32;99944.75;4432163;32;20041;-69
2021/11/30 04:13:00;;;;;;;0.65;0.20;;;;;;;17.18;52.50;99927.25;4437347;32;20073;-69
2021/11/30 04:15:26;;;;;;;0.43;0.20;;;;;;;17.30;52.09;99920.34;4434317;32;20114;-69
2021/11/30 04:17:51;;;;;;;0.52;0.17;;;;;;;17.43;51.97;99920.78;4434897;32;20046;-69
2021/11/30 04:20:17;;;;;;;0.40;0.10;;;;;;;17.38;51.55;99925.09;4432282;32;20526;-69
2021/11/30 04:22:43;;;;;;;0.50;0.20;;;;;;;17.65;51.15;99920.94;4432493;32;20034;-69
2021/11/30 04:25:12;;;;;;;0.68;0.17;;;;;;;17.72;50.95;99926.16;4436558;32;20090;-69
2021/11/30 04:27:39;;;;;;;1.20;0.20;;;;;;;18.01;50.42;99925.81;4432626;32;20034;-69
2021/11/30 04:30:06;;;;;;;3.58;0.30;;;;;;;17.41;51.50;99914.78;4433932;32;20037;-69
2021/11/30 04:32:33;;;;;;;0.20;0.10;;;;;;;17.79;51.00;99908.59;4434945;32;20136;-69
2021/11/30 04:34:59;;;;;;;0.32;0.10;;;;;;;17.74;50.79;99893.03;4436681;32;20043;-69
2021/11/30 04:37:25;;;;;;;0.95;0.17;;;;;;;17.80;50.75;99910.94;4432907;32;20105;-69
2021/11/30 04:39:53;;;;;;;0.68;0.22;;;;;;;17.71;50.75;99942.44;4432678;32;20077;-69
2021/11/30 04:42:21;;;;;;;2.58;0.28;;;;;;;18.11;49.78;99920.69;4432794;32;20463;-69
2021/11/30 04:44:53;;;;;;;1.00;0.17;;;;;;;18.01;50.38;99916.50;4435439;32;20383;-70
2021/11/30 04:47:19;;;;;;;1.15;0.13;;;;;;;17.91;50.58;99932.25;4433249;32;20108;-69
2021/11/30 04:52:30;;;;;;;2.78;0.50;;;;;;;18.51;49.70;99928.94;3982287;32;15022049;-69
2021/11/30 04:54:56;;;;;;;2.87;0.30;;;;;;;18.51;49.70;99928.94;4436618;32;20118;-70
2021/11/30 04:57:23;;;;;;;0.17;0.10;;;;;;;18.41;49.73;99930.44;4433966;32;20740;-70
2021/11/30 04:59:49;;;;;;;1.98;0.30;;;;;;;17.62;51.70;99956.09;4435593;32;20099;-70
2021/11/30 05:02:14;;;;;;;1.52;0.20;;;;;;;18.80;48.92;99979.78;4434716;32;20421;-70
2021/11/30 05:04:42;;;;;;;0.73;0.15;;;;;;;18.44;49.72;99998.56;4436831;32;20038;-70
2021/11/30 05:07:09;;;;;;;1.37;0.30;;;;;;;19.07;48.31;99999.84;4436773;32;20051;-70
2021/11/30 05:09:36;;;;;;;0.20;0.10;;;;;;;19.26;47.80;100011.53;4436041;32;20144;-70
2021/11/30 05:12:01;;;;;;;1.40;0.30;;;;;;;19.16;48.23;99998.81;4435825;32;20041;-70
2021/11/30 05:14:27;;;;;;;1.77;0.32;;;;;;;18.79;48.63;99986.78;4433978;32;20087;-70
2021/11/30 05:16:53;;;;;;;1.42;0.20;;;;;;;18.85;48.64;99964.78;4437519;32;20037;-70
2021/11/30 05:19:19;;;;;;;3.53;0.30;;;;;;;19.18;47.86;99959.16;4435651;32;20422;-70
2021/11/30 05:21:45;;;;;;;1.10;0.13;;;;;;;19.32;47.23;99972.44;4433767;32;20038;-70
2021/11/30 05:24:11;;;;;;;0.75;0.20;;;;;;;19.77;46.52;99977.66;4439611;32;20466;-70
2021/11/30 05:26:37;;;;;;;2.37;0.30;;;;;;;19.87;46.34;99980.22;4431851;32;20169;-70
2021/11/30 05:29:05;;;;;;;1.92;0.20;;;;;;;20.06;45.57;99989.81;4434544;32;20026;-70
2021/11/30 05:31:31;;;;;;;1.60;0.30;;;;;;;19.83;46.31;99993.97;4436688;32;20076;-70
2021/11/30 05:33:59;;;;;;;1.37;0.20;;;;;;;20.05;45.49;99977.59;4434716;32;20098;-70
2021/11/30 05:36:26;;;;;;;2.08;0.20;;;;;;;20.02;45.41;99989.28;4437308;32;20920;-70
2021/11/30 05:38:52;;;;;;;1.23;0.28;;;;;;;20.40;44.80;99972.06;4433686;32;20064;-70
2021/11/30 05:41:18;;;;;;;1.83;0.40;;;;;;;20.08;45.31;99976.56;4432627;32;20060;-71
2021/11/30 05:43:44;;;;;;;1.30;0.30;;;;;;;19.42;46.99;99973.75;4436909;32;20491;-70
2021/11/30 05:46:10;;;;;;;2.15;0.40;;;;;;;19.52;46.78;99940.81;4436480;32;20419;-70
2021/11/30 05:48:36;;;;;;;1.17;0.30;;;;;;;19.45;46.77;99967.78;4416641;32;20057;-70
2021/11/30 05:51:03;;;;;;;0.90;0.37;;;;;;;19.28;47.60;99949.88;4395835;32;20067;-70
2021/11/30 05:53:29;;;;;;;2.35;0.50;;;;;;;19.57;47.17;99969.34;4426976;32;20428;-71
2021/11/30 05:55:58;;;;;;;1.67;0.40;;;;;;;19.34;47.23;99984.09;4434594;32;20073;-70
2021/11/30 05:58:24;;;;;;;2.55;0.43;;;;;;;19.86;46.61;99982.31;4430430;32;20085;-70
2021/11/30 06:00:51;;;;;;;5.65;0.85;;;;;;;19.41;47.38;99975.81;4434184;32;20137;-70
2021/11/30 06:05:57;;;;;;;4.00;0.65;;;;;;;19.49;47.48;99984.66;3995725;31;15021365;-71
2021/11/30 06:08:23;;;;;;;2.60;0.50;;;;;;;19.49;47.48;99984.66;4454322;32;20067;-70
2021/11/30 06:10:49;;;;;;;2.37;0.57;;;;;;;19.10;47.76;99983.78;4453043;32;20059;-70
2021/11/30 06:13:14;;;;;;;4.07;0.40;;;;;;;19.31;47.02;99979.44;4454597;32;20041;-70
2021/11/30 06:15:40;;;;;;;4.75;0.70;;;;;;;18.62;48.74;99978.19;4452675;32;20103;-70
2021/11/30 06:18:06;;;;;;;2.00;0.22;;;;;;;19.21;47.41;99963.84;4439781;32;20902;-70
2021/11/30 06:20:34;;;;;;;4.75;0.43;;;;;;;18.78;48.46;99979.56;4453326;32;20041;-70
2021/11/30 06:23:00;;;;;;;5.25;0.60;;;;;;;18.89;48.33;99980.34;4455646;32;20077;-70
2021/11/30 06:25:27;;;;;;;2.40;0.50;;;;;;;19.02;47.72;99977.78;4454157;32;20156;-70
2021/11/30 06:27:53;;;;;;;2.25;0.60;;;;;;;19.38;47.05;99976.06;4453759;32;20095;-70
2021/11/30 06:30:19;;;;;;;1.92;0.60;;;;;;;18.69;48.42;99976.94;4440074;32;20045;-71
2021/11/30 06:32:45;;;;;;;2.20;0.55;;;;;;;18.63;48.25;99978.97;4454482;32;20073;-70
2021/11/30 06:35:11;;;;;;;4.55;0.70;;;;;;;18.80;48.20;99979.78;4453661;32;20123;-71
2021/11/30 06:37:37;;;;;;;1.42;0.40;;;;;;;18.69;48.32;99991.19;4452575;32;20076;-71
2021/11/30 06:40:04;;;;;;;2.17;0.40;;;;;;;19.14;47.39;99985.09;4452783;32;20122;-71
2021/11/30 06:42:30;;;;;;;2.90;0.50;;;;;;;19.42;46.82;99985.16;4452512;32;20068;-71
2021/11/30 06:44:56;;;;;;;2.03;0.50;;;;;;;19.04;47.84;99980.13;4453595;32;20036;-71
2021/11/30 06:47:21;;;;;;;1.40;0.40;;;;;;;19.33;47.23;99986.19;4454564;32;20214;-71
2021/11/30 06:49:47;;;;;;;1.98;0.30;;;;;;;18.58;49.00;99985.41;4451824;32;20195;-71
2021/11/30 06:52:13;;;;;;;2.85;0.47;;;;;;;18.81;48.40;99979.28;4455198;32;20067;-71
2021/11/30 06:54:43;;;;;;;3.30;0.30;;;;;;;18.83;48.32;99967.38;4454081;32;20107;-71
2021/11/30 06:57:12;;;;;;;1.87;0.50;;;;;;;19.22;47.41;99986.16;4451448;32;20455;-71
2021/11/30 06:59:38;;;;;;;3.95;1.80;;;;;;;18.99;48.22;99995.94;4451170;32;20151;-70
2021/11/30 07:02:05;;;;;;;2.33;0.50;;;;;;;18.85;48.61;99996.16;4454740;32;20021;-70
2021/11/30 07:04:34;;;;;;;4.32;0.88;;;;;;;19.26;47.69;100000.97;4452213;32;20123;-70
2021/11/30 07:07:08;;;;;;;2.28;0.30;;;;;;;19.28;47.37;99986.19;4454080;32;20063;-70
2021/11/30 07:12:23;;;;;;;0.80;0.30;;;;;;;18.90;48.97;99995.41;3981511;32;15022537;-71
2021/11/30 07:14:50;;;;;;;2.60;0.20;;;;;;;18.90;48.97;99995.41;4435159;32;20038;-71
2021/11/30 07:17:16;;;;;;;1.52;0.40;;;;;;;18.53;49.37;99981.25;4434242;32;20393;-71
2021/11/30 07:19:42;;;;;;;2.37;0.28;;;;;;;17.65;51.73;99972.91;4437424;32;20038;-71
2021/11/30 07:22:08;;;;;;;3.90;0.88;;;;;;;18.28;49.99;99969.97;4434534;32;20344;-71
2021/11/30 07:24:33;;;;;;;0.40;0.13;;;;;;;18.41;49.54;99973.94;4434916;32;20585;-71
2021/11/30 07:26:59;;;;;;;0.90;0.32;;;;;;;18.11;50.45;99974.78;4432773;32;20126;-69
2021/11/30 07:29:24;;;;;;;3.35;0.50;;;;;;;18.04;50.85;99969.59;4434246;32;20556;-70
2021/11/30 07:31:50;;;;;;;2.75;0.50;;;;;;;18.25;50.16;99960.38;4431319;32;20069;-71
2021/11/30 07:34:16;;;;;;;3.40;0.60;;;;;;;18.00;50.92;99954.78;4436331;32;20103;-71
2021/11/30 07:36:42;;;;;;;0.50;0.30;;;;;;;18.07;50.67;99948.63;4430883;32;20060;-70
2021/11/30 07:39:08;;;;;;;0.75;0.45;;;;;;;18.20;50.33;99954.66;4430629;32;20490;-72
2021/11/30 07:41:35;;;;;;;0.55;0.30;;;;;;;18.01;50.59;99957.13;4430236;32;20442;-71
2021/11/30 07:44:05;;;;;;;1.45;0.57;;;;;;;18.24;50.03;99961.66;4431981;32;20072;-71
2021/11/30 07:46:30;;;;;;;1.30;0.43;;;;;;;18.34;50.06;99963.00;4426973;32;20038;-71
2021/11/30 07:48:57;;;;;;;0.77;0.20;;;;;;;17.94;50.62;99962.53;4430716;32;20063;-71
2021/11/30 07:51:23;;;;;;;1.98;0.57;;;;;;;17.62;51.57;99985.31;4429301;32;20458;-71
2021/11/30 07:53:50;;;;;;;0.60;0.40;;;;;;;17.65;51.42;99966.47;4424258;32;20679;-71
2021/11/30 07:56:16;;;;;;;0.88;0.30;;;;;;;17.65;51.54;99961.53;4434454;32;20071;-70
2021/11/30 07:58:43;;;;;;;0.57;0.37;;;;;;;17.99;50.58;99970.31;4424853;32;20080;-71
2021/11/30 08:01:10;;;;;;;1.50;0.50;;;;;;;17.81;51.19;99968.66;4427379;32;20061;-72
2021/11/30 08:03:36;;;;;;;0.82;0.47;;;;;;;17.92;50.50;99978.03;4427133;32;20121;-71
2021/11/30 08:06:01;;;;;;;2.22;0.65;;;;;;;17.48;51.87;99986.25;4422732;32;20033;-70
2021/11/30 08:08:27;;;;;;;1.67;0.68;;;;;;;17.91;51.04;99984.22;4423749;32;20088;-71
2021/11/30 08:10:53;;;;;;;0.88;0.47;;;;;;;17.46;52.02;99985.94;4419378;32;20081;-71
2021/11/30 08:13:19;;;;;;;1.73;0.60;;;;;;;17.53;52.06;99985.50;4418411;32;20034;-71
2021/11/30 08:15:45;;;;;;;0.80;0.30;;;;;;;18.05;50.79;99985.37;4420210;32;20089;-71
2021/11/30 08:18:11;;;;;;;0.85;0.40;;;;;;;18.37;49.82;99984.00;4422737;32;20042;-71
2021/11/30 08:20:36;;;;;;;3.40;0.50;;;;;;;17.76;51.33;99975.84;4419902;32;20065;-71
2021/11/30 08:23:04;;;;;;;1.40;0.28;;;;;;;17.89;51.01;99976.19;4413634;32;20888;-71
2021/11/30 08:25:29;;;;;;;1.60;0.50;;;;;;;17.94;50.95;99988.91;4412001;32;20046;-71
2021/11/30 08:27:56;;;;;;;1.08;0.40;;;;;;;18.55;49.41;99977.87;4410461;32;20104;-71
2021/11/30 08:30:22;;;;;;;2.47;0.73;;;;;;;18.08;50.59;99981.50;4412888;32;20143;-72
2021/11/30 08:32:47;;;;;;;0.93;0.55;;;;;;;18.13;50.65;99987.22;4416108;32;20189;-71
2021/11/30 08:35:14;;;;;;;2.60;0.50;;;;;;;18.45;49.55;99976.56;4414310;32;20082;-73
2021/11/30 08:37:39;;;;;;;0.30;0.20;;;;;;;18.41;49.60;99968.25;4410067;32;20045;-73
2021/11/30 08:40:08;;;;;;;1.90;0.20;;;;;;;18.32;49.84;99974.16;4414758;32;20065;-72
2021/11/30 08:42:34;;;;;;;1.05;0.30;;;;;;;18.11;50.74;99986.97;4414444;32;20073;-70
2021/11/30 08:45:00;;;;;;;0.17;0.10;;;;;;;18.48;49.82;99962.09;4416752;32;20104;-70
2021/11/30 08:47:26;;;;;;;0.93;0.17;;;;;;;17.94;51.04;99982.47;4414868;32;20338;-69
2021/11/30 08:49:54;;;;;;;0.70;0.20;;;;;;;18.39;50.07;99984.28;4416402;32;20089;-73
2021/11/30 08:52:26;;;;;;;0.85;0.30;;;;;;;18.32;50.68;99956.28;4416988;32;20108;-71
2021/11/30 08:54:54;;;;;;;0.90;0.20;;;;;;;18.39;50.36;99964.34;4416779;32;20073;-73
2021/11/30 08:57:22;;;;;;;2.20;0.28;;;;;;;18.11;50.79;99967.03;4414709;32;20080;-71
2021/11/30 08:59:48;;;;;;;1.00;0.30;;;;;;;18.49;50.06;99965.69;4414604;32;20114;-73
2021/11/30 09:02:15;;;;;;;1.25;0.32;;;;;;;18.59;49.39;99969.91;4416215;32;20533;-72
2021/11/30 09:04:42;;;;;;;0.50;0.13;;;;;;;18.84;49.15;99977.50;4414283;32;20078;-72
2021/11/30 09:07:08;;;;;;;0.75;0.10;;;;;;;18.69;49.14;99994.03;4415370;32;20026;-72
2021/11/30 09:09:34;;;;;;;0.20;0.10;;;;;;;18.34;49.99;99988.66;4415170;32;20131;-72
2021/11/30 09:11:59;;;;;;;1.10;0.20;;;;;;;18.88;48.63;99970.25;4416099;32;20088;-71
2021/11/30 09:14:26;;;;;;;0.73;0.50;;;;;;;18.63;49.32;99976.13;4415146;32;20124;-72
2021/11/30 09:16:54;;;;;;;0.30;0.10;;;;;;;18.52;49.45;99973.22;4417346;32;20120;-71
2021/11/30 09:19:21;;;;;;;0.43;0.10;;;;;;;19.15;48.13;99988.72;4416406;32;20105;-70
2021/11/30 09:21:47;;;;;;;0.28;0.10;;;;;;;18.51;49.38;99983.06;4415688;32;20069;-70
2021/11/30 09:24:13;;;;;;;1.05;0.13;;;;;;;18.82;48.89;99988.63;4414485;32;20447;-70
2021/11/30 09:26:39;;;;;;;1.95;0.25;;;;;;;18.82;48.99;99997.19;4416004;32;20104;-71
2021/11/30 09:29:05;;;;;;;0.00;0.00;;;;;;;18.78;48.84;100002.34;4416860;32;20099;-70
2021/11/30 09:31:31;;;;;;;0.75;0.20;;;;;;;18.89;48.63;100011.72;4415678;32;20423;-71
2021/11/30 09:34:01;;;;;;;0.28;0.10;;;;;;;19.57;46.90;100020.72;4414970;32;20064;-71
2021/11/30 09:36:29;;;;;;;0.10;0.00;;;;;;;19.54;47.04;100007.47;4416819;32;20595;-70
2021/11/30 09:38:56;;;;;;;0.50;0.10;;;;;;;19.88;46.37;100005.38;4414615;32;20517;-71
2021/11/30 09:41:22;;;;;;;0.75;0.17;;;;;;;19.05;47.84;100008.12;4412286;32;20371;-71
2021/11/30 09:43:50;;;;;;;0.30;0.13;;;;;;;19.33;47.49;100003.28;4414371;32;20073;-71
2021/11/30 09:46:17;;;;;;;0.45;0.10;;;;;;;19.73;46.52;99993.47;4414375;32;20110;-70
2021/11/30 09:48:43;;;;;;;2.12;0.20;;;;;;;19.65;46.78;99996.06;4410730;32;20062;-71
2021/11/30 09:51:09;;;;;;;0.93;0.10;;;;;;;19.75;46.52;99991.66;4418211;32;20059;-72
2021/11/30 09:53:34;;;;;;;0.50;0.10;;;;;;;19.86;46.04;100005.16;4416075;32;20134;-70
2021/11/30 09:56:01;;;;;;;1.25;0.17;;;;;;;19.92;45.89;99991.66;4415023;32;20104;-70
2021/11/30 09:58:28;;;;;;;0.70;0.10;;;;;;;19.73;46.27;99977.09;4413331;32;20127;-70
2021/11/30 10:00:56;;;;;;;0.75;0.10;;;;;;;19.93;45.68;99976.06;4413442;32;20049;-70
2021/11/30 10:03:23;;;;;;;0.10;0.10;;;;;;;20.10;45.62;99985.37;4407871;32;20038;-70
2021/11/30 10:05:51;;;;;;;1.48;0.90;;;;;;;19.26;47.60;99969.56;4412638;32;20077;-71
2021/11/30 10:08:40;;;;;;;1.65;0.62;;;;;;;19.63;46.62;99983.59;4407958;32;20077;-70
2021/11/30 10:11:10;;;;;;;2.80;1.00;;;;;;;19.64;46.59;99999.44;4409243;32;20141;-72
2021/11/30 10:13:37;;;;;;;0.40;0.13;;;;;;;19.61;46.99;99991.91;4409216;32;20138;-72
2021/11/30 10:16:05;;;;;;;0.30;0.10;;;;;;;19.23;47.73;100001.16;4400456;32;20728;-71
2021/11/30 10:18:37;;;;;;;0.80;0.10;;;;;;;19.19;48.02;100010.00;4404598;32;20077;-70
2021/11/30 10:26:28;;;;;;;0.30;0.10;;;;;;;19.29;49.00;100007.69;3956045;32;15022448;-72
2021/11/30 10:28:58;;;;;;;0.65;0.20;;;;;;;19.29;49.00;100007.69;4395276;32;20469;-72
2021/11/30 10:31:30;;;;;;;0.47;0.28;;;;;;;19.51;48.00;99994.25;4403928;32;20485;-72
2021/11/30 10:33:56;;;;;;;0.35;0.20;;;;;;;19.33;47.98;100020.41;4408379;32;20115;-72
2021/11/30 10:36:22;;;;;;;1.55;0.30;;;;;;;19.11;48.42;100003.22;4410331;32;20143;-72
2021/11/30 10:38:48;;;;;;;0.25;0.10;;;;;;;19.41;47.76;99995.00;4406525;32;20700;-71
2021/11/30 10:43:56;;;;;;;0.90;0.47;;;;;;;19.90;46.62;99971.37;3963882;32;15022731;-72
2021/11/30 10:49:03;;;;;;;1.55;0.20;;;;;;;19.69;47.25;99985.16;3991380;31;15016182;-72
2021/11/30 10:51:42;;;;;;;1.10;0.62;;;;;;;19.69;47.25;99985.16;4443183;32;21130;-72
2021/11/30 10:54:09;;;;;;;2.62;1.37;;;;;;;19.24;47.84;99965.66;4443449;32;20377;-72
2021/11/30 10:56:34;;;;;;;1.27;0.70;;;;;;;19.12;47.95;99973.41;4441063;32;20072;-72
2021/11/30 10:59:01;;;;;;;0.60;0.40;;;;;;;18.83;48.87;99985.25;4439836;32;20468;-71
2021/11/30 11:01:27;;;;;;;1.50;0.68;;;;;;;19.02;48.29;99985.59;4443864;32;20041;-72
2021/11/30 11:04:12;;;;;;;1.15;0.60;;;;;;;18.74;49.46;99981.84;4442425;32;20276;-72
2021/11/30 11:06:38;;;;;;;1.15;0.45;;;;;;;19.16;48.41;99968.25;4432221;32;20118;-72
2021/11/30 11:09:09;;;;;;;0.85;0.30;;;;;;;18.68;49.62;99963.97;4439556;32;20037;-72
2021/11/30 11:11:41;;;;;;;1.23;0.60;;;;;;;18.68;49.73;99952.56;4441461;32;20580;-72
2021/11/30 11:14:25;;;;;;;3.00;0.50;;;;;;;18.85;49.54;99939.94;4442926;32;20539;-72
2021/11/30 11:17:00;;;;;;;0.70;0.40;;;;;;;18.90;49.23;99936.28;4441401;32;20116;-72
2021/11/30 11:19:43;;;;;;;2.60;0.40;;;;;;;18.93;49.30;99918.16;4443117;32;20088;-72
2021/11/30 11:22:16;;;;;;;1.17;0.50;;;;;;;19.12;48.55;99935.56;4443634;32;20042;-72
2021/11/30 11:24:43;;;;;;;1.12;0.50;;;;;;;19.08;48.58;99944.38;4442820;32;20397;-72
2021/11/30 11:27:12;;;;;;;1.25;0.60;;;;;;;18.92;49.29;99932.91;4442095;32;20037;-72
2021/11/30 11:29:42;;;;;;;2.78;1.40;;;;;;;19.34;48.26;99929.91;4440943;32;20095;-72
2021/11/30 11:32:08;;;;;;;0.80;0.50;;;;;;;19.72;47.18;99929.88;4440837;32;20696;-72
2021/11/30 11:34:37;;;;;;;0.70;0.30;;;;;;;19.74;46.99;99938.72;4442148;32;20134;-72
2021/11/30 11:37:09;;;;;;;1.55;1.10;;;;;;;20.02;46.44;99947.22;4440769;32;20366;-72
2021/11/30 11:39:35;;;;;;;1.23;0.65;;;;;;;20.37;45.92;99923.78;4442865;32;20493;-73
2021/11/30 11:42:05;;;;;;;0.50;0.40;;;;;;;19.32;48.27;99918.22;4443975;32;20179;-73
2021/11/30 11:44:32;;;;;;;1.55;0.80;;;;;;;19.54;47.94;99907.59;4436019;32;20626;-73
2021/11/30 11:47:01;;;;;;;0.98;0.37;;;;;;;19.46;47.92;99900.84;4435742;32;20488;-73
2021/11/30 11:49:33;;;;;;;1.08;0.47;;;;;;;19.69;47.47;99913.78;4441295;32;20084;-73
2021/11/30 11:51:59;;;;;;;3.42;0.73;;;;;;;19.32;48.14;99898.25;4444289;32;20113;-73
2021/11/30 11:54:29;;;;;;;2.33;0.52;;;;;;;19.27;48.46;99905.50;4442889;32;20497;-73
2021/11/30 11:57:11;;;;;;;1.80;0.57;;;;;;;19.05;49.09;99905.47;4404200;32;20448;-73